Check out our new BloomSky Weather System.

Active alerts


No alerts


Thunder radar  blitzortung!


Rain radar more information rain snow radar


Visit our other weather sites:

Template documentation
and downloads

And another site



Weather Underground History page Text

Daily Summary for February 21, 2017 Units:  English    Metric   Both
« Previous Day
Next Day »
Daily Weekly Monthly Yearly Custom
  High: Low: Average:
Temperature: 75.4 °F 53.8 °F 63.2 °F
Dew Point: 61.5 °F 50.9 °F 56.1 °F
Humidity: 100 % 45 % 81 %
Wind Speed: 17.0 mph 0.0 mph 1.8 mph
Wind Gust: 19.0 mph - -
Wind:- - West
Pressure: 29.96 in 29.87 in -
Precipitation: 0.01 in    
Historical Graphs
 
 
Tabular Data for February 21, 2017
Time Temperature Dew Point Pressure Wind Wind Speed Wind Gust Humidity Rainfall Rate (Hourly)
00:04 59.2 °F 59.2 °F 29.96 in South 1.0 mph 5.0 mph 100 % 0.00 in
00:09 59.0 °F 59.0 °F 29.96 in SSW 4.0 mph 5.0 mph 100 % 0.00 in
00:14 58.8 °F 58.8 °F 29.96 in South 1.0 mph 5.0 mph 100 % 0.00 in
00:19 58.8 °F 58.8 °F 29.96 in South 3.0 mph 5.0 mph 100 % 0.00 in
00:24 58.6 °F 58.6 °F 29.96 in SSE 2.0 mph 4.0 mph 100 % 0.00 in
00:29 58.6 °F 58.6 °F 29.96 in SSE 1.0 mph 4.0 mph 100 % 0.01 in
00:34 58.5 °F 58.5 °F 29.96 in SE 1.0 mph 4.0 mph 100 % 0.01 in
00:39 58.5 °F 58.5 °F 29.96 in SE 1.0 mph 3.0 mph 100 % 0.01 in
00:44 58.5 °F 58.5 °F 29.96 in SSE 1.0 mph 3.0 mph 100 % 0.01 in
00:49 58.3 °F 58.3 °F 29.96 in SSE 2.0 mph 3.0 mph 100 % 0.01 in
00:54 58.3 °F 58.3 °F 29.96 in SSE 2.0 mph 5.0 mph 100 % 0.01 in
00:59 58.3 °F 58.3 °F 29.96 in Calm   5.0 mph 100 % 0.01 in
01:04 58.1 °F 58.1 °F 29.96 in Calm   5.0 mph 100 % 0.01 in
01:09 57.9 °F 57.9 °F 29.96 in SSE 1.0 mph 4.0 mph 100 % 0.01 in
01:14 57.9 °F 57.9 °F 29.96 in Calm   4.0 mph 100 % 0.01 in
01:19 57.7 °F 57.7 °F 29.96 in Calm   1.0 mph 100 % 0.01 in
01:24 57.7 °F 57.7 °F 29.96 in SSE 1.0 mph 1.0 mph 100 % 0.01 in
01:29 57.6 °F 57.6 °F 29.96 in SSW 1.0 mph 1.0 mph 100 % 0.00 in
01:34 57.6 °F 57.6 °F 29.96 in Calm   1.0 mph 100 % 0.00 in
01:39 57.6 °F 57.6 °F 29.96 in Calm   1.0 mph 100 % 0.00 in
01:45 57.4 °F 57.4 °F 29.96 in Calm   1.0 mph 100 % 0.00 in
01:50 57.2 °F 57.2 °F 29.96 in Calm   1.0 mph 100 % 0.00 in
01:55 57.2 °F 57.2 °F 29.96 in Calm   1.0 mph 100 % 0.00 in
02:00 57.0 °F 57.0 °F 29.96 in SW 1.0 mph 2.0 mph 100 % 0.00 in
02:05 57.0 °F 57.0 °F 29.96 in Calm   2.0 mph 100 % 0.00 in
02:10 57.2 °F 57.2 °F 29.96 in Calm   2.0 mph 100 % 0.00 in
02:15 57.4 °F 57.4 °F 29.95 in Calm   2.0 mph 100 % 0.00 in
02:20 57.4 °F 57.4 °F 29.95 in Calm   2.0 mph 100 % 0.00 in
02:25 57.6 °F 57.6 °F 29.95 in Calm   2.0 mph 100 % 0.00 in
02:30 57.6 °F 57.6 °F 29.94 in Calm   3.0 mph 100 % 0.00 in
02:35 57.6 °F 57.6 °F 29.94 in ENE 2.0 mph 4.0 mph 100 % 0.00 in
02:40 57.6 °F 57.6 °F 29.93 in East 2.0 mph 4.0 mph 100 % 0.00 in
02:45 57.4 °F 57.4 °F 29.93 in Calm   4.0 mph 100 % 0.00 in
02:50 57.4 °F 57.4 °F 29.92 in Calm   3.0 mph 100 % 0.00 in
02:55 57.4 °F 57.4 °F 29.92 in Calm   3.0 mph 100 % 0.00 in
03:00 57.4 °F 57.4 °F 29.92 in Calm   3.0 mph 100 % 0.00 in
03:05 57.4 °F 57.4 °F 29.91 in East 2.0 mph 2.0 mph 100 % 0.00 in
03:10 57.2 °F 57.2 °F 29.91 in Calm   3.0 mph 100 % 0.00 in
03:15 57.0 °F 57.0 °F 29.91 in ESE 3.0 mph 3.0 mph 100 % 0.00 in
03:20 57.2 °F 57.2 °F 29.91 in Calm   3.0 mph 100 % 0.00 in
03:25 57.2 °F 57.2 °F 29.91 in ESE 1.0 mph 3.0 mph 100 % 0.00 in
03:30 57.4 °F 57.4 °F 29.91 in ESE 1.0 mph 4.0 mph 100 % 0.00 in
03:35 57.4 °F 57.4 °F 29.92 in Calm   4.0 mph 100 % 0.00 in
03:40 57.6 °F 57.6 °F 29.91 in South 2.0 mph 4.0 mph 100 % 0.00 in
03:45 57.6 °F 57.6 °F 29.92 in Calm   4.0 mph 100 % 0.00 in
03:50 57.6 °F 57.6 °F 29.92 in South 1.0 mph 4.0 mph 100 % 0.00 in
03:51 57.6 °F 57.6 °F 29.92 in South 1.0 mph 4.0 mph 100 % 0.00 in
03:56 57.4 °F 57.4 °F 29.92 in SSE 1.0 mph 4.0 mph 100 % 0.00 in
04:01 57.4 °F 57.4 °F 29.92 in Calm   2.0 mph 100 % 0.00 in
04:06 57.2 °F 57.2 °F 29.92 in Calm   2.0 mph 100 % 0.00 in
04:11 57.0 °F 57.0 °F 29.92 in Calm   1.0 mph 100 % 0.00 in
04:16 57.0 °F 57.0 °F 29.92 in Calm   1.0 mph 100 % 0.00 in
04:21 56.8 °F 56.8 °F 29.92 in Calm   1.0 mph 100 % 0.00 in
04:26 56.8 °F 56.8 °F 29.92 in Calm   1.0 mph 100 % 0.00 in
04:31 56.7 °F 56.7 °F 29.92 in Calm   1.0 mph 100 % 0.00 in
04:36 56.7 °F 56.7 °F 29.92 in Calm   1.0 mph 100 % 0.00 in
04:41 56.5 °F 56.5 °F 29.93 in Calm     100 % 0.00 in
04:46 56.5 °F 56.5 °F 29.93 in Calm     100 % 0.00 in
04:51 56.3 °F 56.3 °F 29.93 in Calm     100 % 0.00 in
04:56 56.1 °F 56.1 °F 29.93 in Calm     100 % 0.00 in
05:01 56.1 °F 56.1 °F 29.93 in Calm     100 % 0.00 in
05:06 56.3 °F 56.3 °F 29.92 in Calm   1.0 mph 100 % 0.00 in
05:11 56.1 °F 56.1 °F 29.92 in Calm   1.0 mph 100 % 0.00 in
05:16 56.1 °F 56.1 °F 29.92 in Calm   1.0 mph 100 % 0.00 in
05:21 56.1 °F 56.1 °F 29.92 in Calm     100 % 0.00 in
05:26 56.1 °F 56.1 °F 29.92 in Calm     100 % 0.00 in
05:31 56.1 °F 56.1 °F 29.92 in Calm     100 % 0.00 in
05:37 56.3 °F 56.3 °F 29.91 in Calm     100 % 0.00 in
05:42 56.5 °F 56.5 °F 29.92 in Calm   1.0 mph 100 % 0.00 in
05:47 56.5 °F 56.5 °F 29.91 in Calm   1.0 mph 100 % 0.00 in
05:52 56.5 °F 56.5 °F 29.91 in Calm   1.0 mph 100 % 0.00 in
05:57 56.3 °F 56.3 °F 29.91 in Calm   1.0 mph 100 % 0.00 in
06:02 56.1 °F 56.1 °F 29.91 in Calm   2.0 mph 100 % 0.00 in
06:07 55.9 °F 55.9 °F 29.91 in Calm   2.0 mph 100 % 0.00 in
06:12 55.9 °F 55.9 °F 29.91 in Calm   2.0 mph 100 % 0.00 in
06:17 55.9 °F 55.9 °F 29.91 in Calm   1.0 mph 100 % 0.00 in
06:22 55.9 °F 55.9 °F 29.91 in Calm   1.0 mph 100 % 0.00 in
06:27 55.9 °F 55.9 °F 29.91 in Calm   1.0 mph 100 % 0.00 in
06:32 55.9 °F 55.9 °F 29.91 in Calm     100 % 0.00 in
06:37 55.9 °F 55.9 °F 29.91 in Calm     100 % 0.00 in
06:42 55.9 °F 55.9 °F 29.91 in Calm     100 % 0.00 in
06:47 55.8 °F 55.8 °F 29.91 in Calm     100 % 0.00 in
06:52 55.6 °F 55.6 °F 29.91 in Calm     100 % 0.00 in
06:57 55.6 °F 55.6 °F 29.91 in Calm     100 % 0.00 in
07:02 55.8 °F 55.8 °F 29.91 in Calm     100 % 0.00 in
07:07 55.8 °F 55.8 °F 29.91 in Calm     100 % 0.00 in
07:12 55.9 °F 55.9 °F 29.91 in Calm   1.0 mph 100 % 0.00 in
07:17 56.1 °F 56.1 °F 29.91 in Calm   1.0 mph 100 % 0.00 in
07:22 56.1 °F 56.1 °F 29.92 in Calm   1.0 mph 100 % 0.00 in
07:27 56.5 °F 56.5 °F 29.91 in Calm   1.0 mph 100 % 0.00 in
07:32 56.7 °F 56.7 °F 29.92 in Calm   1.0 mph 100 % 0.00 in
07:37 57.0 °F 57.0 °F 29.92 in Calm   1.0 mph 100 % 0.00 in
07:42 57.4 °F 57.4 °F 29.92 in Calm   1.0 mph 100 % 0.00 in
07:47 57.7 °F 57.7 °F 29.92 in Calm   1.0 mph 100 % 0.00 in
07:52 57.9 °F 57.9 °F 29.92 in Calm   1.0 mph 100 % 0.00 in
07:57 58.1 °F 58.1 °F 29.92 in Calm   3.0 mph 100 % 0.00 in
08:02 58.3 °F 58.3 °F 29.92 in Calm   3.0 mph 100 % 0.00 in
08:07 58.3 °F 58.3 °F 29.92 in Calm   3.0 mph 100 % 0.00 in
08:12 58.5 °F 58.5 °F 29.92 in Calm   1.0 mph 100 % 0.00 in
08:17 58.6 °F 58.6 °F 29.92 in Calm   1.0 mph 100 % 0.00 in
08:22 59.2 °F 59.2 °F 29.92 in Calm   1.0 mph 100 % 0.00 in
08:27 59.7 °F 59.7 °F 29.92 in West 1.0 mph 1.0 mph 100 % 0.00 in
08:32 59.4 °F 59.4 °F 29.92 in WSW 3.0 mph 3.0 mph 100 % 0.00 in
08:37 59.4 °F 59.4 °F 29.93 in WSW 1.0 mph 3.0 mph 100 % 0.00 in
08:43 60.1 °F 60.1 °F 29.93 in Calm   3.0 mph 100 % 0.00 in
08:48 60.1 °F 60.1 °F 29.93 in WSW 2.0 mph 3.0 mph 100 % 0.00 in
08:53 60.1 °F 60.1 °F 29.93 in WNW 1.0 mph 4.0 mph 100 % 0.00 in
08:58 59.7 °F 59.4 °F 29.93 in NW 2.0 mph 4.0 mph 99 % 0.00 in
09:03 59.7 °F 59.4 °F 29.93 in West 1.0 mph 4.0 mph 99 % 0.00 in
09:08 59.7 °F 59.4 °F 29.93 in WNW 1.0 mph 4.0 mph 99 % 0.00 in
09:13 59.9 °F 59.5 °F 29.94 in NNW 2.0 mph 4.0 mph 99 % 0.00 in
09:18 59.5 °F 59.2 °F 29.94 in NNW 5.0 mph 6.0 mph 99 % 0.00 in
09:23 59.7 °F 59.4 °F 29.94 in NNW 4.0 mph 6.0 mph 99 % 0.00 in
09:28 60.1 °F 59.7 °F 29.94 in NW 1.0 mph 6.0 mph 99 % 0.00 in
09:33 60.4 °F 60.1 °F 29.94 in WNW 3.0 mph 6.0 mph 99 % 0.00 in
09:38 60.4 °F 59.5 °F 29.94 in NNE 6.0 mph 7.0 mph 97 % 0.00 in
09:43 60.6 °F 59.5 °F 29.94 in NNW 3.0 mph 8.0 mph 96 % 0.00 in
09:48 61.2 °F 59.7 °F 29.94 in WNW 4.0 mph 8.0 mph 95 % 0.00 in
09:53 61.3 °F 59.4 °F 29.94 in NW 3.0 mph 8.0 mph 93 % 0.00 in
09:58 61.9 °F 59.5 °F 29.95 in NW 3.0 mph 7.0 mph 92 % 0.00 in
10:03 62.2 °F 59.2 °F 29.95 in NW 3.0 mph 7.0 mph 90 % 0.00 in
10:08 62.6 °F 59.0 °F 29.94 in North 4.0 mph 9.0 mph 88 % 0.00 in
10:13 62.8 °F 59.2 °F 29.95 in NW 5.0 mph 9.0 mph 88 % 0.00 in
10:18 62.8 °F 59.2 °F 29.95 in NW 1.0 mph 9.0 mph 88 % 0.00 in
10:23 63.1 °F 59.9 °F 29.95 in NNE 1.0 mph 9.0 mph 89 % 0.00 in
10:28 63.3 °F 59.4 °F 29.95 in NW 3.0 mph 9.0 mph 87 % 0.00 in
10:33 63.7 °F 59.7 °F 29.95 in NW 2.0 mph 7.0 mph 87 % 0.00 in
10:39 63.9 °F 59.9 °F 29.95 in North 4.0 mph 7.0 mph 87 % 0.00 in
10:44 64.2 °F 59.5 °F 29.95 in SE 1.0 mph 8.0 mph 85 % 0.00 in
10:49 64.9 °F 59.9 °F 29.95 in North 2.0 mph 9.0 mph 84 % 0.00 in
10:54 64.8 °F 59.5 °F 29.95 in NW 4.0 mph 9.0 mph 83 % 0.00 in
10:59 64.6 °F 59.9 °F 29.95 in NW 2.0 mph 9.0 mph 85 % 0.00 in
11:04 64.9 °F 59.7 °F 29.95 in WNW 3.0 mph 8.0 mph 83 % 0.00 in
11:09 65.3 °F 60.3 °F 29.94 in NNW 3.0 mph 8.0 mph 84 % 0.00 in
11:14 66.4 °F 61.3 °F 29.94 in NW 4.0 mph 7.0 mph 84 % 0.00 in
11:19 66.6 °F 60.6 °F 29.94 in NW 3.0 mph 8.0 mph 81 % 0.00 in
11:24 66.7 °F 60.8 °F 29.94 in NNW 1.0 mph 8.0 mph 81 % 0.00 in
11:29 67.3 °F 60.6 °F 29.94 in NW 3.0 mph 8.0 mph 79 % 0.00 in
11:34 67.3 °F 60.3 °F 29.94 in NNW 5.0 mph 7.0 mph 78 % 0.00 in
11:39 67.3 °F 60.3 °F 29.94 in NW 3.0 mph 10.0 mph 78 % 0.00 in
11:44 67.6 °F 59.7 °F 29.94 in NNW 2.0 mph 10.0 mph 76 % 0.00 in
11:49 67.6 °F 60.3 °F 29.94 in WNW 3.0 mph 10.0 mph 77 % 0.00 in
11:54 67.5 °F 60.4 °F 29.94 in WNW 3.0 mph 8.0 mph 78 % 0.00 in
11:59 67.5 °F 59.5 °F 29.93 in West 2.0 mph 9.0 mph 76 % 0.00 in
12:04 67.6 °F 60.6 °F 29.93 in NNW 3.0 mph 9.0 mph 78 % 0.00 in
12:09 68.4 °F 60.8 °F 29.93 in NNW 6.0 mph 9.0 mph 77 % 0.00 in
12:14 68.7 °F 61.2 °F 29.93 in NW 2.0 mph 8.0 mph 77 % 0.00 in
12:19 69.3 °F 60.6 °F 29.92 in NNW 4.0 mph 8.0 mph 74 % 0.00 in
12:24 69.3 °F 60.6 °F 29.92 in NNW 3.0 mph 8.0 mph 74 % 0.00 in
12:29 69.4 °F 60.4 °F 29.92 in NW 5.0 mph 8.0 mph 73 % 0.00 in
12:34 69.8 °F 60.8 °F 29.91 in WSW 2.0 mph 9.0 mph 73 % 0.00 in
12:40 70.3 °F 61.3 °F 29.91 in NW 1.0 mph 9.0 mph 73 % 0.00 in
12:45 70.5 °F 60.6 °F 29.91 in NW 3.0 mph 9.0 mph 71 % 0.00 in
12:50 70.7 °F 61.2 °F 29.91 in North 2.0 mph 7.0 mph 72 % 0.00 in
12:55 70.9 °F 60.3 °F 29.91 in WNW 2.0 mph 7.0 mph 69 % 0.00 in
13:00 71.2 °F 61.3 °F 29.91 in NW 3.0 mph 7.0 mph 71 % 0.00 in
13:05 72.0 °F 61.2 °F 29.91 in NW 3.0 mph 7.0 mph 69 % 0.00 in
13:10 72.0 °F 60.4 °F 29.90 in WNW 4.0 mph 9.0 mph 67 % 0.00 in
13:15 72.1 °F 60.1 °F 29.90 in West 3.0 mph 11.0 mph 66 % 0.00 in
13:20 72.7 °F 61.5 °F 29.89 in NW 4.0 mph 11.0 mph 68 % 0.00 in
13:25 72.7 °F 61.2 °F 29.89 in North 3.0 mph 11.0 mph 67 % 0.00 in
13:30 73.0 °F 61.0 °F 29.89 in NNW 5.0 mph 11.0 mph 66 % 0.00 in
13:35 73.0 °F 61.0 °F 29.88 in WSW 4.0 mph 11.0 mph 66 % 0.00 in
13:40 73.6 °F 60.3 °F 29.88 in NW 6.0 mph 11.0 mph 63 % 0.00 in
13:45 73.6 °F 59.4 °F 29.89 in NNW 5.0 mph 10.0 mph 61 % 0.00 in
13:50 73.6 °F 59.7 °F 29.88 in NW 6.0 mph 10.0 mph 62 % 0.00 in
13:55 73.8 °F 59.5 °F 29.88 in South 1.0 mph 12.0 mph 61 % 0.00 in
14:00 73.9 °F 60.1 °F 29.88 in WNW 5.0 mph 12.0 mph 62 % 0.00 in
14:05 74.1 °F 58.5 °F 29.88 in ENE 4.0 mph 12.0 mph 58 % 0.00 in
14:10 73.9 °F 58.3 °F 29.88 in NW 2.0 mph 14.0 mph 58 % 0.00 in
14:15 74.1 °F 58.8 °F 29.88 in NNW 5.0 mph 14.0 mph 59 % 0.00 in
14:20 74.5 °F 57.2 °F 29.88 in NNW 12.0 mph 14.0 mph 55 % 0.00 in
14:25 74.1 °F 55.9 °F 29.88 in NNW 11.0 mph 19.0 mph 53 % 0.00 in
14:30 74.3 °F 55.0 °F 29.87 in NNW 13.0 mph 19.0 mph 51 % 0.00 in
14:35 74.3 °F 54.5 °F 29.87 in NW 7.0 mph 19.0 mph 50 % 0.00 in
14:40 74.1 °F 55.4 °F 29.87 in NW 5.0 mph 15.0 mph 52 % 0.00 in
14:45 74.5 °F 56.7 °F 29.87 in NNW 4.0 mph 13.0 mph 54 % 0.00 in
14:50 74.8 °F 55.6 °F 29.87 in NW 5.0 mph 11.0 mph 51 % 0.00 in
14:56 75.2 °F 54.1 °F 29.87 in NW 7.0 mph 16.0 mph 48 % 0.00 in
15:01 74.8 °F 52.2 °F 29.87 in NNW 12.0 mph 16.0 mph 45 % 0.00 in
15:06 74.8 °F 53.8 °F 29.87 in WNW 3.0 mph 16.0 mph 48 % 0.00 in
15:11 74.8 °F 52.2 °F 29.87 in NW 10.0 mph 14.0 mph 45 % 0.00 in
15:16 74.7 °F 53.6 °F 29.87 in NNW 17.0 mph 17.0 mph 48 % 0.00 in
15:21 74.7 °F 53.1 °F 29.87 in NW 9.0 mph 17.0 mph 47 % 0.00 in
15:26 74.7 °F 54.3 °F 29.87 in North 3.0 mph 17.0 mph 49 % 0.00 in
15:31 74.8 °F 53.8 °F 29.87 in NW 12.0 mph 17.0 mph 48 % 0.00 in
15:36 74.8 °F 54.3 °F 29.87 in North 6.0 mph 17.0 mph 49 % 0.00 in
15:41 74.8 °F 53.8 °F 29.87 in NNW 7.0 mph 17.0 mph 48 % 0.00 in
15:46 75.2 °F 54.7 °F 29.87 in WNW 4.0 mph 17.0 mph 49 % 0.00 in
15:56 75.0 °F 54.5 °F 29.87 in NNW 5.0 mph 12.0 mph 49 % 0.00 in
16:01 75.0 °F 54.5 °F 29.87 in NW 9.0 mph 12.0 mph 49 % 0.00 in
16:06 75.0 °F 53.4 °F 29.87 in NW 9.0 mph 12.0 mph 47 % 0.00 in
16:11 75.4 °F 52.5 °F 29.87 in NW 3.0 mph 13.0 mph 45 % 0.00 in
16:16 75.4 °F 53.2 °F 29.87 in NW 4.0 mph 13.0 mph 46 % 0.00 in
16:21 75.4 °F 52.5 °F 29.87 in West 6.0 mph 13.0 mph 45 % 0.00 in
16:26 75.0 °F 52.2 °F 29.87 in WNW 9.0 mph 13.0 mph 45 % 0.00 in
16:31 75.0 °F 52.2 °F 29.87 in NW 3.0 mph 13.0 mph 45 % 0.00 in
16:36 75.0 °F 52.2 °F 29.87 in NW 3.0 mph 12.0 mph 45 % 0.00 in
16:42 75.0 °F 52.2 °F 29.87 in NW 6.0 mph 12.0 mph 45 % 0.00 in
16:47 75.0 °F 52.9 °F 29.87 in North 1.0 mph 12.0 mph 46 % 0.00 in
16:52 75.2 °F 53.1 °F 29.87 in NNW 5.0 mph 9.0 mph 46 % 0.00 in
16:57 75.0 °F 52.9 °F 29.87 in NNW 2.0 mph 9.0 mph 46 % 0.00 in
17:02 74.8 °F 52.2 °F 29.87 in West 5.0 mph 12.0 mph 45 % 0.00 in
17:07 74.8 °F 52.7 °F 29.87 in WSW 2.0 mph 12.0 mph 46 % 0.00 in
17:12 74.8 °F 52.7 °F 29.88 in NW 4.0 mph 12.0 mph 46 % 0.00 in
17:17 74.8 °F 52.7 °F 29.88 in WNW 4.0 mph 9.0 mph 46 % 0.00 in
17:22 74.5 °F 51.8 °F 29.88 in NW 5.0 mph 9.0 mph 45 % 0.00 in
17:27 74.3 °F 52.2 °F 29.88 in WNW 3.0 mph 10.0 mph 46 % 0.00 in
17:32 74.1 °F 52.0 °F 29.88 in NW 2.0 mph 10.0 mph 46 % 0.00 in
17:37 73.9 °F 52.5 °F 29.88 in NNW 8.0 mph 10.0 mph 47 % 0.00 in
17:42 73.8 °F 51.6 °F 29.88 in NW 6.0 mph 12.0 mph 46 % 0.00 in
17:47 73.6 °F 52.2 °F 29.88 in NNW 7.0 mph 12.0 mph 47 % 0.00 in
17:52 73.2 °F 51.8 °F 29.88 in WSW 4.0 mph 12.0 mph 47 % 0.00 in
17:57 73.0 °F 51.6 °F 29.88 in WNW 1.0 mph 9.0 mph 47 % 0.00 in
18:02 72.7 °F 51.8 °F 29.88 in North 1.0 mph 7.0 mph 48 % 0.00 in
18:07 72.3 °F 51.4 °F 29.88 in Calm   7.0 mph 48 % 0.00 in
18:12 72.0 °F 51.8 °F 29.89 in NNW 2.0 mph 7.0 mph 49 % 0.00 in
18:17 71.8 °F 51.6 °F 29.89 in NW 2.0 mph 7.0 mph 49 % 0.00 in
18:22 71.4 °F 51.8 °F 29.89 in NW 3.0 mph 6.0 mph 50 % 0.00 in
18:27 71.2 °F 51.6 °F 29.89 in Calm   6.0 mph 50 % 0.00 in
18:32 70.9 °F 51.8 °F 29.89 in WNW 1.0 mph 6.0 mph 51 % 0.00 in
18:37 70.5 °F 52.0 °F 29.89 in West 2.0 mph 5.0 mph 52 % 0.00 in
18:42 70.2 °F 51.8 °F 29.89 in Calm   3.0 mph 52 % 0.00 in
18:47 69.6 °F 51.8 °F 29.89 in Calm   3.0 mph 53 % 0.00 in
18:52 69.3 °F 52.0 °F 29.89 in Calm   3.0 mph 54 % 0.00 in
18:57 68.5 °F 51.8 °F 29.89 in Calm   2.0 mph 55 % 0.00 in
19:02 68.2 °F 51.8 °F 29.89 in Calm   1.0 mph 56 % 0.00 in
19:07 67.6 °F 51.8 °F 29.90 in Calm   1.0 mph 57 % 0.00 in
19:12 67.3 °F 52.0 °F 29.89 in Calm   1.0 mph 58 % 0.00 in
19:17 66.9 °F 52.2 °F 29.89 in Calm   1.0 mph 59 % 0.00 in
19:22 66.6 °F 51.8 °F 29.89 in Calm   1.0 mph 59 % 0.00 in
19:27 66.2 °F 52.0 °F 29.89 in Calm   1.0 mph 60 % 0.00 in
19:32 65.8 °F 52.0 °F 29.89 in Calm   1.0 mph 61 % 0.00 in
19:37 65.5 °F 52.2 °F 29.90 in Calm   1.0 mph 62 % 0.00 in
19:42 64.9 °F 52.0 °F 29.90 in Calm   1.0 mph 63 % 0.00 in
19:47 64.4 °F 52.0 °F 29.90 in Calm   1.0 mph 64 % 0.00 in
19:52 64.0 °F 52.0 °F 29.90 in Calm     65 % 0.00 in
19:57 63.7 °F 52.2 °F 29.91 in Calm     66 % 0.00 in
20:02 63.1 °F 52.0 °F 29.91 in Calm     67 % 0.00 in
20:07 62.8 °F 52.5 °F 29.91 in Calm     69 % 0.00 in
20:12 62.4 °F 52.2 °F 29.91 in Calm     69 % 0.00 in
20:17 62.2 °F 52.7 °F 29.91 in Calm   1.0 mph 71 % 0.00 in
20:22 62.1 °F 52.5 °F 29.91 in Calm   1.0 mph 71 % 0.00 in
20:27 61.9 °F 52.7 °F 29.91 in Calm   1.0 mph 72 % 0.00 in
20:32 61.7 °F 52.9 °F 29.91 in Calm   1.0 mph 73 % 0.00 in
20:37 61.3 °F 52.7 °F 29.92 in Calm   1.0 mph 73 % 0.00 in
20:42 61.2 °F 52.5 °F 29.92 in Calm   1.0 mph 73 % 0.00 in
20:47 60.8 °F 52.5 °F 29.91 in Calm     74 % 0.00 in
20:52 60.6 °F 52.7 °F 29.91 in Calm   1.0 mph 75 % 0.00 in
20:57 60.8 °F 53.2 °F 29.91 in Calm   1.0 mph 76 % 0.00 in
21:02 60.8 °F 52.9 °F 29.91 in Calm   1.0 mph 75 % 0.00 in
21:07 60.6 °F 53.1 °F 29.91 in Calm   1.0 mph 76 % 0.00 in
21:12 60.3 °F 52.7 °F 29.91 in Calm     76 % 0.00 in
21:17 59.7 °F 52.2 °F 29.91 in Calm     76 % 0.00 in
21:22 59.4 °F 51.8 °F 29.91 in Calm     76 % 0.00 in
21:27 58.8 °F 52.0 °F 29.91 in Calm     78 % 0.00 in
21:32 58.5 °F 52.0 °F 29.91 in Calm     79 % 0.00 in
21:37 58.3 °F 52.5 °F 29.91 in Calm     81 % 0.00 in
21:42 58.5 °F 53.1 °F 29.92 in Calm     82 % 0.00 in
21:47 58.6 °F 53.2 °F 29.92 in Calm     82 % 0.00 in
21:52 58.8 °F 53.1 °F 29.92 in Calm     81 % 0.00 in
21:57 58.8 °F 53.1 °F 29.92 in Calm     81 % 0.00 in
22:02 58.6 °F 53.2 °F 29.92 in Calm     82 % 0.00 in
22:07 58.1 °F 52.7 °F 29.92 in Calm     82 % 0.00 in
22:12 57.6 °F 52.2 °F 29.91 in Calm     82 % 0.00 in
22:17 57.2 °F 52.2 °F 29.92 in Calm     83 % 0.00 in
22:22 56.7 °F 51.8 °F 29.92 in Calm     84 % 0.00 in
22:27 56.5 °F 52.3 °F 29.92 in Calm     86 % 0.00 in
22:32 56.7 °F 52.9 °F 29.92 in Calm     87 % 0.00 in
22:37 56.7 °F 52.9 °F 29.92 in Calm     87 % 0.00 in
22:42 56.7 °F 52.9 °F 29.91 in Calm     87 % 0.00 in
22:47 56.7 °F 52.9 °F 29.92 in Calm     87 % 0.00 in
22:52 56.5 °F 52.9 °F 29.92 in Calm     88 % 0.00 in
22:57 56.3 °F 52.5 °F 29.92 in Calm   1.0 mph 87 % 0.00 in
23:02 56.1 °F 52.7 °F 29.92 in Calm   1.0 mph 88 % 0.00 in
23:07 55.9 °F 52.5 °F 29.92 in Calm   1.0 mph 88 % 0.00 in
23:12 55.8 °F 52.3 °F 29.92 in Calm   1.0 mph 88 % 0.00 in
23:17 55.8 °F 52.5 °F 29.92 in Calm   1.0 mph 89 % 0.00 in
23:22 55.8 °F 52.5 °F 29.92 in Calm     89 % 0.00 in
23:27 55.6 °F 52.3 °F 29.92 in Calm     89 % 0.00 in
23:32 55.0 °F 51.8 °F 29.92 in Calm     89 % 0.00 in
23:37 55.0 °F 52.2 °F 29.92 in Calm     90 % 0.00 in
23:43 54.7 °F 51.8 °F 29.91 in Calm     90 % 0.00 in
23:48 54.3 °F 51.4 °F 29.91 in Calm     90 % 0.00 in
23:53 54.0 °F 51.1 °F 29.91 in Calm     90 % 0.00 in
23:58 53.8 °F 50.9 °F 29.91 in Calm     90 % 0.00 in
Spring, Texas: Villages of Bridgestone
Compliments of Weather Underground - 3.25 mb

Script developed by  Jim McMurry - jmcmurry@mwt.net Adapted for the template by  Wim van der Kuil - Leuven-Template.eu

You find our weather info also at:

UK Metoffice

WeatherCloud

Weather Underground

Mid-South Weather Network

AWEKAS

Citizen Weather Observer Program (CWOP)

HAMweather, WeatherForYou, PWS Weather

Equipment we use:

Weather-station
Davis Vantage Vue

Weather-program
Meteohub

Weather-server
Debian 7.9 x86 (Guest)

Provider
DreamHost

Davis Vantage Vue

Meteohub

Debian 7.9 x86 (Guest)

DreamHost